sensor_id;sensor_type;location;lat;lon;timestamp;P1;durP1;ratioP1;P2;durP2;ratioP2
16101;SDS011;56411;52.964;10.540;2023-04-03T00:01:09;9.67;;;2.40;;
16101;SDS011;56411;52.964;10.540;2023-04-03T00:03:37;13.43;;;2.57;;
16101;SDS011;56411;52.964;10.540;2023-04-03T00:06:04;13.87;;;2.97;;
16101;SDS011;56411;52.964;10.540;2023-04-03T00:08:33;14.87;;;3.30;;
16101;SDS011;56411;52.964;10.540;2023-04-03T00:11:01;13.03;;;2.93;;
16101;SDS011;56411;52.964;10.540;2023-04-03T00:13:28;9.90;;;2.63;;
16101;SDS011;56411;52.964;10.540;2023-04-03T00:15:57;9.63;;;2.70;;
16101;SDS011;56411;52.964;10.540;2023-04-03T00:18:24;9.00;;;3.07;;
16101;SDS011;56411;52.964;10.540;2023-04-03T00:20:55;11.33;;;2.83;;
16101;SDS011;56411;52.964;10.540;2023-04-03T00:23:24;8.50;;;2.50;;
16101;SDS011;56411;52.964;10.540;2023-04-03T00:25:53;11.43;;;2.90;;
16101;SDS011;56411;52.964;10.540;2023-04-03T00:28:21;14.27;;;3.00;;
16101;SDS011;56411;52.964;10.540;2023-04-03T00:30:48;11.97;;;2.87;;
16101;SDS011;56411;52.964;10.540;2023-04-03T00:33:17;9.57;;;2.70;;
16101;SDS011;56411;52.964;10.540;2023-04-03T00:35:46;11.43;;;3.00;;
16101;SDS011;56411;52.964;10.540;2023-04-03T00:38:14;9.63;;;3.30;;
16101;SDS011;56411;52.964;10.540;2023-04-03T00:40:42;11.93;;;3.03;;
16101;SDS011;56411;52.964;10.540;2023-04-03T00:43:11;11.13;;;2.97;;
16101;SDS011;56411;52.964;10.540;2023-04-03T00:45:41;12.53;;;3.20;;
16101;SDS011;56411;52.964;10.540;2023-04-03T00:48:10;13.37;;;3.10;;
16101;SDS011;56411;52.964;10.540;2023-04-03T00:50:44;12.77;;;3.03;;
16101;SDS011;56411;52.964;10.540;2023-04-03T00:53:14;13.07;;;3.13;;
16101;SDS011;56411;52.964;10.540;2023-04-03T00:55:46;13.47;;;3.33;;
16101;SDS011;56411;52.964;10.540;2023-04-03T00:58:15;12.23;;;3.07;;
16101;SDS011;56411;52.964;10.540;2023-04-03T01:00:46;13.97;;;3.07;;
16101;SDS011;56411;52.964;10.540;2023-04-03T01:03:22;10.60;;;2.97;;
16101;SDS011;56411;52.964;10.540;2023-04-03T01:05:53;14.07;;;3.13;;
16101;SDS011;56411;52.964;10.540;2023-04-03T01:08:21;12.63;;;2.90;;
16101;SDS011;56411;52.964;10.540;2023-04-03T01:10:48;10.20;;;2.80;;
16101;SDS011;56411;52.964;10.540;2023-04-03T01:13:19;11.60;;;2.97;;
16101;SDS011;56411;52.964;10.540;2023-04-03T01:15:54;12.17;;;3.17;;
16101;SDS011;56411;52.964;10.540;2023-04-03T01:18:21;8.43;;;2.70;;
16101;SDS011;56411;52.964;10.540;2023-04-03T01:21:01;12.43;;;3.53;;
16101;SDS011;56411;52.964;10.540;2023-04-03T01:24:09;9.60;;;2.97;;
16101;SDS011;56411;52.964;10.540;2023-04-03T01:26:46;8.43;;;2.50;;
16101;SDS011;56411;52.964;10.540;2023-04-03T01:29:14;8.53;;;3.40;;
16101;SDS011;56411;52.964;10.540;2023-04-03T01:31:52;12.50;;;3.20;;
16101;SDS011;56411;52.964;10.540;2023-04-03T01:34:20;13.97;;;3.23;;
16101;SDS011;56411;52.964;10.540;2023-04-03T01:36:48;12.53;;;3.33;;
16101;SDS011;56411;52.964;10.540;2023-04-03T01:39:17;12.03;;;3.43;;
16101;SDS011;56411;52.964;10.540;2023-04-03T01:41:44;13.00;;;3.20;;
16101;SDS011;56411;52.964;10.540;2023-04-03T01:44:11;12.60;;;3.20;;
16101;SDS011;56411;52.964;10.540;2023-04-03T01:46:38;12.03;;;3.30;;
16101;SDS011;56411;52.964;10.540;2023-04-03T01:49:08;11.27;;;3.03;;
16101;SDS011;56411;52.964;10.540;2023-04-03T01:51:36;14.07;;;2.97;;
16101;SDS011;56411;52.964;10.540;2023-04-03T01:54:03;8.97;;;2.83;;
16101;SDS011;56411;52.964;10.540;2023-04-03T01:56:30;12.80;;;3.13;;
16101;SDS011;56411;52.964;10.540;2023-04-03T01:58:58;14.23;;;2.90;;
16101;SDS011;56411;52.964;10.540;2023-04-03T02:01:25;12.17;;;3.30;;
16101;SDS011;56411;52.964;10.540;2023-04-03T02:03:52;11.73;;;3.13;;
16101;SDS011;56411;52.964;10.540;2023-04-03T02:06:21;11.13;;;3.00;;
16101;SDS011;56411;52.964;10.540;2023-04-03T02:08:48;11.90;;;3.30;;
16101;SDS011;56411;52.964;10.540;2023-04-03T02:11:15;11.53;;;3.20;;
16101;SDS011;56411;52.964;10.540;2023-04-03T02:13:42;11.17;;;3.23;;
16101;SDS011;56411;52.964;10.540;2023-04-03T02:16:09;13.53;;;3.30;;
16101;SDS011;56411;52.964;10.540;2023-04-03T02:18:38;12.50;;;3.20;;
16101;SDS011;56411;52.964;10.540;2023-04-03T02:21:05;13.23;;;3.07;;
16101;SDS011;56411;52.964;10.540;2023-04-03T02:23:33;13.53;;;3.50;;
16101;SDS011;56411;52.964;10.540;2023-04-03T02:26:06;12.37;;;3.93;;
16101;SDS011;56411;52.964;10.540;2023-04-03T02:28:34;16.47;;;3.60;;
16101;SDS011;56411;52.964;10.540;2023-04-03T02:31:01;14.37;;;3.93;;
16101;SDS011;56411;52.964;10.540;2023-04-03T02:33:29;13.23;;;3.90;;
16101;SDS011;56411;52.964;10.540;2023-04-03T02:35:56;13.07;;;3.37;;
16101;SDS011;56411;52.964;10.540;2023-04-03T02:38:24;11.13;;;3.00;;
16101;SDS011;56411;52.964;10.540;2023-04-03T02:40:53;9.27;;;3.47;;
16101;SDS011;56411;52.964;10.540;2023-04-03T02:43:25;13.23;;;3.03;;
16101;SDS011;56411;52.964;10.540;2023-04-03T02:45:52;10.67;;;2.80;;
16101;SDS011;56411;52.964;10.540;2023-04-03T02:48:19;11.50;;;3.37;;
16101;SDS011;56411;52.964;10.540;2023-04-03T02:50:46;13.13;;;2.83;;
16101;SDS011;56411;52.964;10.540;2023-04-03T02:53:14;8.47;;;2.60;;
16101;SDS011;56411;52.964;10.540;2023-04-03T02:55:41;12.23;;;3.47;;
16101;SDS011;56411;52.964;10.540;2023-04-03T02:58:11;10.00;;;3.10;;
16101;SDS011;56411;52.964;10.540;2023-04-03T03:00:39;9.73;;;3.03;;
16101;SDS011;56411;52.964;10.540;2023-04-03T03:03:06;10.00;;;2.80;;
16101;SDS011;56411;52.964;10.540;2023-04-03T03:05:34;10.73;;;2.93;;
16101;SDS011;56411;52.964;10.540;2023-04-03T03:08:01;11.27;;;3.00;;
16101;SDS011;56411;52.964;10.540;2023-04-03T03:10:28;11.60;;;2.97;;
16101;SDS011;56411;52.964;10.540;2023-04-03T03:12:55;12.07;;;2.87;;
16101;SDS011;56411;52.964;10.540;2023-04-03T03:15:24;8.97;;;3.10;;
16101;SDS011;56411;52.964;10.540;2023-04-03T03:17:54;9.67;;;2.60;;
16101;SDS011;56411;52.964;10.540;2023-04-03T03:20:21;11.17;;;3.20;;
16101;SDS011;56411;52.964;10.540;2023-04-03T03:22:48;8.43;;;3.03;;
16101;SDS011;56411;52.964;10.540;2023-04-03T03:25:15;11.37;;;2.63;;
16101;SDS011;56411;52.964;10.540;2023-04-03T03:27:45;10.97;;;2.90;;
16101;SDS011;56411;52.964;10.540;2023-04-03T03:30:12;13.70;;;3.03;;
16101;SDS011;56411;52.964;10.540;2023-04-03T03:32:41;12.50;;;2.70;;
16101;SDS011;56411;52.964;10.540;2023-04-03T03:35:08;10.63;;;2.80;;
16101;SDS011;56411;52.964;10.540;2023-04-03T03:37:36;9.23;;;2.87;;
16101;SDS011;56411;52.964;10.540;2023-04-03T03:40:03;9.80;;;2.77;;
16101;SDS011;56411;52.964;10.540;2023-04-03T03:42:31;10.90;;;2.93;;
16101;SDS011;56411;52.964;10.540;2023-04-03T03:44:58;8.30;;;3.07;;
16101;SDS011;56411;52.964;10.540;2023-04-03T03:47:25;13.07;;;3.40;;
16101;SDS011;56411;52.964;10.540;2023-04-03T03:49:53;12.57;;;3.30;;
16101;SDS011;56411;52.964;10.540;2023-04-03T03:52:21;9.73;;;2.93;;
16101;SDS011;56411;52.964;10.540;2023-04-03T03:54:48;10.13;;;2.90;;
16101;SDS011;56411;52.964;10.540;2023-04-03T03:57:18;9.50;;;2.87;;
16101;SDS011;56411;52.964;10.540;2023-04-03T03:59:45;9.87;;;2.90;;
16101;SDS011;56411;52.964;10.540;2023-04-03T04:02:14;10.67;;;2.93;;
16101;SDS011;56411;52.964;10.540;2023-04-03T04:04:41;12.63;;;2.80;;
16101;SDS011;56411;52.964;10.540;2023-04-03T04:07:10;11.20;;;2.80;;
16101;SDS011;56411;52.964;10.540;2023-04-03T04:09:37;7.90;;;2.63;;
16101;SDS011;56411;52.964;10.540;2023-04-03T04:12:04;10.20;;;3.10;;
16101;SDS011;56411;52.964;10.540;2023-04-03T04:14:32;9.50;;;2.80;;
16101;SDS011;56411;52.964;10.540;2023-04-03T04:16:59;10.27;;;3.03;;
16101;SDS011;56411;52.964;10.540;2023-04-03T04:19:27;9.40;;;2.87;;
16101;SDS011;56411;52.964;10.540;2023-04-03T04:22:03;10.43;;;2.90;;
16101;SDS011;56411;52.964;10.540;2023-04-03T04:25:06;9.90;;;2.80;;
16101;SDS011;56411;52.964;10.540;2023-04-03T04:27:35;8.67;;;2.87;;
16101;SDS011;56411;52.964;10.540;2023-04-03T04:30:02;9.73;;;3.50;;
16101;SDS011;56411;52.964;10.540;2023-04-03T04:32:34;9.17;;;3.10;;
16101;SDS011;56411;52.964;10.540;2023-04-03T04:35:02;11.77;;;3.50;;
16101;SDS011;56411;52.964;10.540;2023-04-03T04:37:30;11.43;;;3.13;;
16101;SDS011;56411;52.964;10.540;2023-04-03T04:39:58;10.70;;;3.20;;
16101;SDS011;56411;52.964;10.540;2023-04-03T04:42:27;10.37;;;3.17;;
16101;SDS011;56411;52.964;10.540;2023-04-03T04:44:54;11.43;;;3.60;;
16101;SDS011;56411;52.964;10.540;2023-04-03T04:47:22;11.47;;;3.30;;
16101;SDS011;56411;52.964;10.540;2023-04-03T04:49:49;11.63;;;3.83;;
16101;SDS011;56411;52.964;10.540;2023-04-03T04:52:17;9.30;;;3.53;;
16101;SDS011;56411;52.964;10.540;2023-04-03T04:54:44;12.83;;;3.50;;
16101;SDS011;56411;52.964;10.540;2023-04-03T04:57:11;11.70;;;3.43;;
16101;SDS011;56411;52.964;10.540;2023-04-03T04:59:41;15.17;;;3.60;;
16101;SDS011;56411;52.964;10.540;2023-04-03T05:02:09;11.90;;;3.70;;
16101;SDS011;56411;52.964;10.540;2023-04-03T05:04:36;11.13;;;3.70;;
16101;SDS011;56411;52.964;10.540;2023-04-03T05:07:04;10.93;;;3.67;;
16101;SDS011;56411;52.964;10.540;2023-04-03T05:09:31;11.97;;;3.70;;
16101;SDS011;56411;52.964;10.540;2023-04-03T05:11:58;8.97;;;3.50;;
16101;SDS011;56411;52.964;10.540;2023-04-03T05:14:25;11.10;;;3.77;;
16101;SDS011;56411;52.964;10.540;2023-04-03T05:16:53;11.67;;;3.87;;
16101;SDS011;56411;52.964;10.540;2023-04-03T05:19:21;9.77;;;3.67;;
16101;SDS011;56411;52.964;10.540;2023-04-03T05:21:49;11.73;;;3.70;;
16101;SDS011;56411;52.964;10.540;2023-04-03T05:24:16;9.90;;;3.73;;
16101;SDS011;56411;52.964;10.540;2023-04-03T05:26:44;13.00;;;4.00;;
16101;SDS011;56411;52.964;10.540;2023-04-03T05:29:11;15.77;;;4.00;;
16101;SDS011;56411;52.964;10.540;2023-04-03T05:31:38;13.97;;;3.83;;
16101;SDS011;56411;52.964;10.540;2023-04-03T05:34:07;11.27;;;4.40;;
16101;SDS011;56411;52.964;10.540;2023-04-03T05:36:34;16.00;;;5.17;;
16101;SDS011;56411;52.964;10.540;2023-04-03T05:39:02;12.83;;;4.00;;
16101;SDS011;56411;52.964;10.540;2023-04-03T05:41:29;13.63;;;4.30;;
16101;SDS011;56411;52.964;10.540;2023-04-03T05:43:56;20.30;;;6.30;;
16101;SDS011;56411;52.964;10.540;2023-04-03T05:46:23;14.63;;;4.60;;
16101;SDS011;56411;52.964;10.540;2023-04-03T05:48:51;13.63;;;5.03;;
16101;SDS011;56411;52.964;10.540;2023-04-03T05:51:22;13.40;;;4.57;;
16101;SDS011;56411;52.964;10.540;2023-04-03T05:53:52;10.40;;;4.03;;
16101;SDS011;56411;52.964;10.540;2023-04-03T05:56:25;13.87;;;4.13;;
16101;SDS011;56411;52.964;10.540;2023-04-03T05:58:53;12.57;;;4.00;;
16101;SDS011;56411;52.964;10.540;2023-04-03T06:01:21;12.83;;;4.23;;
16101;SDS011;56411;52.964;10.540;2023-04-03T06:03:49;11.63;;;3.70;;
16101;SDS011;56411;52.964;10.540;2023-04-03T06:06:16;11.43;;;4.00;;
16101;SDS011;56411;52.964;10.540;2023-04-03T06:08:45;10.10;;;3.80;;
16101;SDS011;56411;52.964;10.540;2023-04-03T06:11:12;12.83;;;4.03;;
16101;SDS011;56411;52.964;10.540;2023-04-03T06:13:40;10.50;;;3.80;;
16101;SDS011;56411;52.964;10.540;2023-04-03T06:16:08;13.33;;;3.80;;
16101;SDS011;56411;52.964;10.540;2023-04-03T06:18:39;10.97;;;3.70;;
16101;SDS011;56411;52.964;10.540;2023-04-03T06:21:06;12.80;;;3.90;;
16101;SDS011;56411;52.964;10.540;2023-04-03T06:23:34;13.73;;;3.87;;
16101;SDS011;56411;52.964;10.540;2023-04-03T06:29:04;10.77;;;3.60;;
16101;SDS011;56411;52.964;10.540;2023-04-03T06:31:32;13.10;;;3.97;;
16101;SDS011;56411;52.964;10.540;2023-04-03T06:33:59;13.20;;;3.90;;
16101;SDS011;56411;52.964;10.540;2023-04-03T06:36:27;15.90;;;3.87;;
16101;SDS011;56411;52.964;10.540;2023-04-03T06:38:55;12.50;;;3.80;;
16101;SDS011;56411;52.964;10.540;2023-04-03T06:41:22;12.40;;;3.50;;
16101;SDS011;56411;52.964;10.540;2023-04-03T06:43:51;12.13;;;3.50;;
16101;SDS011;56411;52.964;10.540;2023-04-03T06:46:21;12.20;;;3.20;;
16101;SDS011;56411;52.964;10.540;2023-04-03T06:48:48;9.80;;;3.07;;
16101;SDS011;56411;52.964;10.540;2023-04-03T06:51:17;9.50;;;3.30;;
16101;SDS011;56411;52.964;10.540;2023-04-03T06:53:46;9.57;;;2.90;;
16101;SDS011;56411;52.964;10.540;2023-04-03T06:56:13;10.43;;;3.00;;
16101;SDS011;56411;52.964;10.540;2023-04-03T06:58:41;9.67;;;2.73;;
16101;SDS011;56411;52.964;10.540;2023-04-03T07:01:10;7.77;;;2.70;;
16101;SDS011;56411;52.964;10.540;2023-04-03T07:03:40;5.97;;;2.20;;
16101;SDS011;56411;52.964;10.540;2023-04-03T07:06:09;10.10;;;2.93;;
16101;SDS011;56411;52.964;10.540;2023-04-03T07:08:39;8.47;;;2.70;;
16101;SDS011;56411;52.964;10.540;2023-04-03T07:11:07;7.73;;;2.17;;
16101;SDS011;56411;52.964;10.540;2023-04-03T07:13:35;7.10;;;2.37;;
16101;SDS011;56411;52.964;10.540;2023-04-03T07:16:02;6.50;;;2.10;;
16101;SDS011;56411;52.964;10.540;2023-04-03T07:18:31;6.60;;;2.13;;
16101;SDS011;56411;52.964;10.540;2023-04-03T07:21:00;6.77;;;2.07;;
16101;SDS011;56411;52.964;10.540;2023-04-03T07:23:28;7.13;;;2.10;;
16101;SDS011;56411;52.964;10.540;2023-04-03T07:25:55;7.60;;;2.13;;
16101;SDS011;56411;52.964;10.540;2023-04-03T07:28:22;10.60;;;2.30;;
16101;SDS011;56411;52.964;10.540;2023-04-03T07:30:51;7.50;;;2.30;;
16101;SDS011;56411;52.964;10.540;2023-04-03T07:33:20;7.30;;;2.37;;
16101;SDS011;56411;52.964;10.540;2023-04-03T07:35:49;7.23;;;2.20;;
16101;SDS011;56411;52.964;10.540;2023-04-03T07:38:18;10.20;;;2.43;;
16101;SDS011;56411;52.964;10.540;2023-04-03T07:40:45;6.67;;;1.93;;
16101;SDS011;56411;52.964;10.540;2023-04-03T07:43:13;7.33;;;2.20;;
16101;SDS011;56411;52.964;10.540;2023-04-03T07:45:41;6.93;;;2.27;;
16101;SDS011;56411;52.964;10.540;2023-04-03T07:48:09;8.70;;;2.00;;
16101;SDS011;56411;52.964;10.540;2023-04-03T07:50:37;8.27;;;2.30;;
16101;SDS011;56411;52.964;10.540;2023-04-03T07:53:08;8.10;;;2.10;;
16101;SDS011;56411;52.964;10.540;2023-04-03T07:55:42;7.63;;;2.30;;
16101;SDS011;56411;52.964;10.540;2023-04-03T07:58:13;4.20;;;1.90;;
16101;SDS011;56411;52.964;10.540;2023-04-03T08:00:42;5.47;;;1.83;;
16101;SDS011;56411;52.964;10.540;2023-04-03T08:03:20;5.00;;;1.97;;
16101;SDS011;56411;52.964;10.540;2023-04-03T08:05:48;7.10;;;1.83;;
16101;SDS011;56411;52.964;10.540;2023-04-03T08:08:17;6.67;;;1.80;;
16101;SDS011;56411;52.964;10.540;2023-04-03T08:10:53;3.70;;;1.87;;
16101;SDS011;56411;52.964;10.540;2023-04-03T08:14:00;6.63;;;2.20;;
16101;SDS011;56411;52.964;10.540;2023-04-03T08:16:28;5.83;;;1.90;;
16101;SDS011;56411;52.964;10.540;2023-04-03T08:18:55;6.57;;;2.10;;
16101;SDS011;56411;52.964;10.540;2023-04-03T08:21:24;9.53;;;2.07;;
16101;SDS011;56411;52.964;10.540;2023-04-03T08:24:10;8.63;;;2.07;;
16101;SDS011;56411;52.964;10.540;2023-04-03T08:26:39;6.00;;;1.90;;
16101;SDS011;56411;52.964;10.540;2023-04-03T08:29:21;7.73;;;2.40;;
16101;SDS011;56411;52.964;10.540;2023-04-03T09:16:52;3.57;;;1.60;;
16101;SDS011;56411;52.964;10.540;2023-04-03T09:20:28;4.17;;;1.50;;
16101;SDS011;56411;52.964;10.540;2023-04-03T09:46:56;5.00;;;1.80;;
16101;SDS011;56411;52.964;10.540;2023-04-03T09:50:15;4.93;;;1.87;;
16101;SDS011;56411;52.964;10.540;2023-04-03T09:59:34;3.33;;;1.47;;
16101;SDS011;56411;52.964;10.540;2023-04-03T10:05:37;7.73;;;1.77;;
16101;SDS011;56411;52.964;10.540;2023-04-03T10:18:27;2.23;;;1.40;;
16101;SDS011;56411;52.964;10.540;2023-04-03T10:21:32;4.57;;;1.60;;
16101;SDS011;56411;52.964;10.540;2023-04-03T10:24:37;4.07;;;1.40;;
16101;SDS011;56411;52.964;10.540;2023-04-03T10:27:53;8.03;;;2.63;;
16101;SDS011;56411;52.964;10.540;2023-04-03T10:34:20;5.10;;;1.90;;
16101;SDS011;56411;52.964;10.540;2023-04-03T10:37:30;4.30;;;2.00;;
16101;SDS011;56411;52.964;10.540;2023-04-03T10:40:37;7.00;;;1.77;;
16101;SDS011;56411;52.964;10.540;2023-04-03T10:44:13;7.67;;;2.00;;
16101;SDS011;56411;52.964;10.540;2023-04-03T11:07:38;4.53;;;1.70;;
16101;SDS011;56411;52.964;10.540;2023-04-03T11:10:56;4.63;;;1.70;;
16101;SDS011;56411;52.964;10.540;2023-04-03T16:28:50;9.30;;;2.90;;
16101;SDS011;56411;52.964;10.540;2023-04-03T16:31:23;8.90;;;2.80;;
16101;SDS011;56411;52.964;10.540;2023-04-03T16:33:57;6.27;;;2.20;;
16101;SDS011;56411;52.964;10.540;2023-04-03T16:36:46;4.87;;;1.97;;
16101;SDS011;56411;52.964;10.540;2023-04-03T16:39:29;5.67;;;2.20;;
16101;SDS011;56411;52.964;10.540;2023-04-03T16:42:17;5.83;;;1.90;;
16101;SDS011;56411;52.964;10.540;2023-04-03T16:44:46;4.57;;;1.73;;
16101;SDS011;56411;52.964;10.540;2023-04-03T16:47:13;6.97;;;2.03;;
16101;SDS011;56411;52.964;10.540;2023-04-03T16:49:44;5.20;;;1.67;;
16101;SDS011;56411;52.964;10.540;2023-04-03T16:52:12;6.00;;;2.03;;
16101;SDS011;56411;52.964;10.540;2023-04-03T16:54:40;5.43;;;2.13;;
16101;SDS011;56411;52.964;10.540;2023-04-03T16:57:07;5.47;;;2.30;;
16101;SDS011;56411;52.964;10.540;2023-04-03T16:59:34;7.87;;;2.10;;
16101;SDS011;56411;52.964;10.540;2023-04-03T17:02:03;8.27;;;2.73;;
16101;SDS011;56411;52.964;10.540;2023-04-03T17:04:31;11.30;;;3.10;;
16101;SDS011;56411;52.964;10.540;2023-04-03T17:07:01;7.83;;;2.50;;
16101;SDS011;56411;52.964;10.540;2023-04-03T17:09:31;5.43;;;2.10;;
16101;SDS011;56411;52.964;10.540;2023-04-03T17:14:54;4.43;;;2.00;;
16101;SDS011;56411;52.964;10.540;2023-04-03T17:17:42;4.17;;;1.77;;
16101;SDS011;56411;52.964;10.540;2023-04-03T17:20:19;8.77;;;2.80;;
16101;SDS011;56411;52.964;10.540;2023-04-03T17:26:24;9.13;;;2.70;;
16101;SDS011;56411;52.964;10.540;2023-04-03T17:32:14;5.57;;;2.10;;
16101;SDS011;56411;52.964;10.540;2023-04-03T17:35:03;9.77;;;2.40;;
16101;SDS011;56411;52.964;10.540;2023-04-03T17:37:51;5.63;;;2.17;;
16101;SDS011;56411;52.964;10.540;2023-04-03T17:43:58;10.00;;;3.27;;
16101;SDS011;56411;52.964;10.540;2023-04-03T17:47:22;10.13;;;2.33;;
16101;SDS011;56411;52.964;10.540;2023-04-03T17:50:40;9.73;;;2.37;;
16101;SDS011;56411;52.964;10.540;2023-04-03T18:00:14;5.60;;;2.10;;
16101;SDS011;56411;52.964;10.540;2023-04-03T18:06:09;13.07;;;3.00;;
16101;SDS011;56411;52.964;10.540;2023-04-03T18:12:20;14.30;;;3.80;;
16101;SDS011;56411;52.964;10.540;2023-04-03T18:14:50;9.07;;;2.40;;
16101;SDS011;56411;52.964;10.540;2023-04-03T18:17:17;9.23;;;2.87;;
16101;SDS011;56411;52.964;10.540;2023-04-03T18:19:46;8.03;;;2.63;;
16101;SDS011;56411;52.964;10.540;2023-04-03T18:22:17;8.43;;;2.80;;
16101;SDS011;56411;52.964;10.540;2023-04-03T18:24:48;9.40;;;2.80;;
16101;SDS011;56411;52.964;10.540;2023-04-03T18:27:17;8.73;;;2.60;;
16101;SDS011;56411;52.964;10.540;2023-04-03T18:29:46;10.47;;;2.80;;
16101;SDS011;56411;52.964;10.540;2023-04-03T18:32:17;9.93;;;2.50;;
16101;SDS011;56411;52.964;10.540;2023-04-03T18:34:45;8.83;;;2.80;;
16101;SDS011;56411;52.964;10.540;2023-04-03T18:37:13;9.80;;;2.50;;
16101;SDS011;56411;52.964;10.540;2023-04-03T18:39:42;7.67;;;2.43;;
16101;SDS011;56411;52.964;10.540;2023-04-03T18:42:10;6.43;;;2.50;;
16101;SDS011;56411;52.964;10.540;2023-04-03T18:44:40;5.90;;;2.30;;
16101;SDS011;56411;52.964;10.540;2023-04-03T18:47:10;4.87;;;2.00;;
16101;SDS011;56411;52.964;10.540;2023-04-03T18:49:38;5.67;;;2.07;;
16101;SDS011;56411;52.964;10.540;2023-04-03T18:52:07;6.27;;;2.30;;
16101;SDS011;56411;52.964;10.540;2023-04-03T18:54:35;5.53;;;2.30;;
16101;SDS011;56411;52.964;10.540;2023-04-03T18:57:13;4.27;;;2.00;;
16101;SDS011;56411;52.964;10.540;2023-04-03T18:59:48;7.47;;;2.40;;
16101;SDS011;56411;52.964;10.540;2023-04-03T19:02:20;4.93;;;2.47;;
16101;SDS011;56411;52.964;10.540;2023-04-03T19:05:06;6.27;;;2.40;;
16101;SDS011;56411;52.964;10.540;2023-04-03T19:07:46;5.83;;;2.30;;
16101;SDS011;56411;52.964;10.540;2023-04-03T19:10:15;4.77;;;2.10;;
16101;SDS011;56411;52.964;10.540;2023-04-03T19:12:46;5.83;;;2.23;;
16101;SDS011;56411;52.964;10.540;2023-04-03T19:15:15;7.40;;;2.33;;
16101;SDS011;56411;52.964;10.540;2023-04-03T19:17:44;6.30;;;2.47;;
16101;SDS011;56411;52.964;10.540;2023-04-03T19:20:12;5.30;;;2.37;;
16101;SDS011;56411;52.964;10.540;2023-04-03T19:22:39;7.57;;;2.60;;
16101;SDS011;56411;52.964;10.540;2023-04-03T19:25:07;7.00;;;2.50;;
16101;SDS011;56411;52.964;10.540;2023-04-03T19:27:35;6.33;;;2.53;;
16101;SDS011;56411;52.964;10.540;2023-04-03T19:30:05;6.43;;;2.57;;
16101;SDS011;56411;52.964;10.540;2023-04-03T19:32:33;4.07;;;2.20;;
16101;SDS011;56411;52.964;10.540;2023-04-03T19:35:01;7.77;;;2.20;;
16101;SDS011;56411;52.964;10.540;2023-04-03T19:37:29;4.13;;;2.03;;
16101;SDS011;56411;52.964;10.540;2023-04-03T19:39:56;5.20;;;2.23;;
16101;SDS011;56411;52.964;10.540;2023-04-03T19:42:27;7.63;;;2.33;;
16101;SDS011;56411;52.964;10.540;2023-04-03T19:44:55;4.93;;;2.23;;
16101;SDS011;56411;52.964;10.540;2023-04-03T19:47:24;6.33;;;2.37;;
16101;SDS011;56411;52.964;10.540;2023-04-03T19:49:53;8.10;;;2.40;;
16101;SDS011;56411;52.964;10.540;2023-04-03T19:52:20;5.63;;;2.10;;
16101;SDS011;56411;52.964;10.540;2023-04-03T19:54:47;6.80;;;2.30;;
16101;SDS011;56411;52.964;10.540;2023-04-03T19:57:15;7.17;;;2.50;;
16101;SDS011;56411;52.964;10.540;2023-04-03T19:59:42;5.70;;;2.30;;
16101;SDS011;56411;52.964;10.540;2023-04-03T20:02:09;5.50;;;2.40;;
16101;SDS011;56411;52.964;10.540;2023-04-03T20:04:38;7.77;;;2.70;;
16101;SDS011;56411;52.964;10.540;2023-04-03T20:07:05;5.80;;;2.50;;
16101;SDS011;56411;52.964;10.540;2023-04-03T20:09:33;7.53;;;2.50;;
16101;SDS011;56411;52.964;10.540;2023-04-03T20:12:00;6.77;;;2.33;;
16101;SDS011;56411;52.964;10.540;2023-04-03T20:14:27;6.70;;;2.40;;
16101;SDS011;56411;52.964;10.540;2023-04-03T20:16:55;7.63;;;2.50;;
16101;SDS011;56411;52.964;10.540;2023-04-03T20:19:22;8.63;;;2.77;;
16101;SDS011;56411;52.964;10.540;2023-04-03T20:21:52;6.93;;;2.40;;
16101;SDS011;56411;52.964;10.540;2023-04-03T20:24:20;9.23;;;2.80;;
16101;SDS011;56411;52.964;10.540;2023-04-03T20:26:47;8.63;;;2.70;;
16101;SDS011;56411;52.964;10.540;2023-04-03T20:29:14;7.87;;;2.80;;
16101;SDS011;56411;52.964;10.540;2023-04-03T20:31:44;6.27;;;2.90;;
16101;SDS011;56411;52.964;10.540;2023-04-03T20:34:13;8.17;;;3.17;;
16101;SDS011;56411;52.964;10.540;2023-04-03T20:36:42;7.80;;;2.97;;
16101;SDS011;56411;52.964;10.540;2023-04-03T20:39:12;8.37;;;2.53;;
16101;SDS011;56411;52.964;10.540;2023-04-03T20:41:40;9.00;;;2.50;;
16101;SDS011;56411;52.964;10.540;2023-04-03T20:44:07;13.33;;;2.90;;
16101;SDS011;56411;52.964;10.540;2023-04-03T20:46:35;11.40;;;2.93;;
16101;SDS011;56411;52.964;10.540;2023-04-03T20:49:02;9.13;;;3.43;;
16101;SDS011;56411;52.964;10.540;2023-04-03T20:51:29;8.20;;;2.83;;
16101;SDS011;56411;52.964;10.540;2023-04-03T20:53:56;10.20;;;3.10;;
16101;SDS011;56411;52.964;10.540;2023-04-03T20:56:25;12.03;;;3.20;;
16101;SDS011;56411;52.964;10.540;2023-04-03T20:58:57;11.23;;;3.90;;
16101;SDS011;56411;52.964;10.540;2023-04-03T21:01:25;11.03;;;4.00;;
16101;SDS011;56411;52.964;10.540;2023-04-03T21:03:54;7.53;;;3.10;;
16101;SDS011;56411;52.964;10.540;2023-04-03T21:21:28;8.57;;;3.30;;
16101;SDS011;56411;52.964;10.540;2023-04-03T21:23:55;9.83;;;3.20;;
16101;SDS011;56411;52.964;10.540;2023-04-03T21:26:24;8.87;;;3.03;;
16101;SDS011;56411;52.964;10.540;2023-04-03T21:28:52;6.63;;;2.80;;
16101;SDS011;56411;52.964;10.540;2023-04-03T21:31:20;8.77;;;3.23;;
16101;SDS011;56411;52.964;10.540;2023-04-03T21:33:47;11.07;;;3.70;;
16101;SDS011;56411;52.964;10.540;2023-04-03T21:36:15;9.93;;;3.23;;
16101;SDS011;56411;52.964;10.540;2023-04-03T21:38:42;9.00;;;3.50;;
16101;SDS011;56411;52.964;10.540;2023-04-03T21:41:13;9.93;;;3.90;;
16101;SDS011;56411;52.964;10.540;2023-04-03T21:43:40;10.60;;;4.00;;
16101;SDS011;56411;52.964;10.540;2023-04-03T21:46:10;12.07;;;4.63;;
16101;SDS011;56411;52.964;10.540;2023-04-03T21:48:37;12.07;;;4.40;;
16101;SDS011;56411;52.964;10.540;2023-04-03T21:51:05;11.00;;;4.40;;
16101;SDS011;56411;52.964;10.540;2023-04-03T21:53:36;11.70;;;4.00;;
16101;SDS011;56411;52.964;10.540;2023-04-03T21:56:03;10.30;;;3.57;;
16101;SDS011;56411;52.964;10.540;2023-04-03T21:58:31;9.10;;;3.43;;
16101;SDS011;56411;52.964;10.540;2023-04-03T22:01:06;10.43;;;3.23;;
16101;SDS011;56411;52.964;10.540;2023-04-03T22:03:35;9.53;;;3.50;;
16101;SDS011;56411;52.964;10.540;2023-04-03T22:06:02;7.93;;;3.20;;
16101;SDS011;56411;52.964;10.540;2023-04-03T22:08:29;8.53;;;3.13;;
16101;SDS011;56411;52.964;10.540;2023-04-03T22:10:59;7.50;;;2.67;;
16101;SDS011;56411;52.964;10.540;2023-04-03T22:13:27;8.17;;;2.90;;
16101;SDS011;56411;52.964;10.540;2023-04-03T22:15:55;8.70;;;2.80;;
16101;SDS011;56411;52.964;10.540;2023-04-03T22:18:23;7.17;;;2.87;;
16101;SDS011;56411;52.964;10.540;2023-04-03T22:20:51;8.90;;;2.90;;
16101;SDS011;56411;52.964;10.540;2023-04-03T22:23:19;8.27;;;2.80;;
16101;SDS011;56411;52.964;10.540;2023-04-03T22:25:55;8.87;;;2.90;;
16101;SDS011;56411;52.964;10.540;2023-04-03T22:28:24;9.77;;;2.80;;
16101;SDS011;56411;52.964;10.540;2023-04-03T22:30:55;6.37;;;2.60;;
16101;SDS011;56411;52.964;10.540;2023-04-03T22:33:22;6.97;;;2.60;;
16101;SDS011;56411;52.964;10.540;2023-04-03T22:35:49;5.43;;;2.53;;
16101;SDS011;56411;52.964;10.540;2023-04-03T22:38:19;6.33;;;2.30;;
16101;SDS011;56411;52.964;10.540;2023-04-03T22:40:47;5.77;;;2.33;;
16101;SDS011;56411;52.964;10.540;2023-04-03T22:43:21;6.70;;;3.00;;
16101;SDS011;56411;52.964;10.540;2023-04-03T22:45:50;8.40;;;3.30;;